createdAt,value
2023-04-27T00:01:48.184Z,16.65
2023-04-27T00:04:16.344Z,13.35
2023-04-27T00:06:43.639Z,16.60
2023-04-27T00:09:11.254Z,17.88
2023-04-27T00:11:38.535Z,22.15
2023-04-27T00:14:05.884Z,24.10
2023-04-27T00:16:33.075Z,25.92
2023-04-27T00:19:00.843Z,19.88
2023-04-27T00:21:27.917Z,17.05
2023-04-27T00:23:55.253Z,21.10
2023-04-27T00:26:22.596Z,16.10
2023-04-27T00:28:52.237Z,31.27
2023-04-27T00:31:19.292Z,22.08
2023-04-27T00:33:46.873Z,16.27
2023-04-27T00:36:16.422Z,18.80
2023-04-27T00:38:43.662Z,17.15
2023-04-27T00:41:11.466Z,14.48
2023-04-27T00:43:45.307Z,17.27
2023-04-27T00:46:13.663Z,27.33
2023-04-27T00:48:41.754Z,19.17
2023-04-27T00:51:09.908Z,15.90
2023-04-27T00:53:37.237Z,19.80
2023-04-27T00:56:07.600Z,18.60
2023-04-27T00:58:35.245Z,24.55
2023-04-27T01:01:03.472Z,24.15
2023-04-27T01:03:31.215Z,28.05
2023-04-27T01:06:01.200Z,24.90
2023-04-27T01:08:29.508Z,19.30
2023-04-27T01:10:56.886Z,19.10
2023-04-27T01:13:24.356Z,20.15
2023-04-27T01:15:51.977Z,21.45
2023-04-27T01:18:19.383Z,17.65
2023-04-27T01:20:46.972Z,12.15
2023-04-27T01:23:16.799Z,15.73
2023-04-27T01:25:45.180Z,15.20
2023-04-27T01:28:12.371Z,15.95
2023-04-27T01:30:39.535Z,19.38
2023-04-27T01:33:06.673Z,15.32
2023-04-27T01:35:33.804Z,8.75
2023-04-27T01:38:01.391Z,12.35
2023-04-27T01:40:29.014Z,18.13
2023-04-27T01:42:56.472Z,11.80
2023-04-27T01:45:23.926Z,10.70
2023-04-27T01:47:52.258Z,9.80
2023-04-27T01:50:20.939Z,13.35
2023-04-27T01:52:48.332Z,11.55
2023-04-27T01:55:16.077Z,15.15
2023-04-27T01:57:43.388Z,22.63
2023-04-27T02:00:11.937Z,16.08
2023-04-27T02:02:51.201Z,14.20
2023-04-27T02:05:18.974Z,9.55
2023-04-27T02:07:46.978Z,11.57
2023-04-27T02:10:14.364Z,9.40
2023-04-27T02:12:41.481Z,12.45
2023-04-27T02:15:09.613Z,17.52
2023-04-27T02:17:38.137Z,17.45
2023-04-27T02:20:10.527Z,16.23
2023-04-27T02:22:43.056Z,14.07
2023-04-27T02:25:11.397Z,12.38
2023-04-27T02:27:39.858Z,13.02
2023-04-27T02:30:08.684Z,11.07
2023-04-27T02:32:36.815Z,7.35
2023-04-27T02:35:05.225Z,13.02
2023-04-27T02:37:32.623Z,10.77
2023-04-27T02:40:00.385Z,10.52
2023-04-27T02:42:27.903Z,11.23
2023-04-27T02:44:55.462Z,13.57
2023-04-27T02:47:22.816Z,12.73
2023-04-27T02:49:49.850Z,10.65
2023-04-27T02:52:16.768Z,8.50
2023-04-27T02:54:44.332Z,8.65
2023-04-27T02:57:11.861Z,11.05
2023-04-27T02:59:39.345Z,12.70
2023-04-27T03:02:07.343Z,6.53
2023-04-27T03:04:36.203Z,7.40
2023-04-27T03:07:04.483Z,9.00
2023-04-27T03:09:31.727Z,5.60
2023-04-27T03:11:59.156Z,9.18
2023-04-27T03:14:27.232Z,11.77
2023-04-27T03:16:55.895Z,7.50
2023-04-27T03:19:23.591Z,7.22
2023-04-27T03:21:51.047Z,10.13
2023-04-27T03:24:18.115Z,8.85
2023-04-27T03:26:45.602Z,7.82
2023-04-27T03:29:12.758Z,7.97
2023-04-27T03:31:40.398Z,13.25
2023-04-27T03:34:07.757Z,10.30
2023-04-27T03:36:34.805Z,8.20
2023-04-27T03:39:02.487Z,12.48
2023-04-27T03:41:29.844Z,11.88
2023-04-27T03:43:57.375Z,12.25
2023-04-27T03:46:24.466Z,10.07
2023-04-27T03:48:51.734Z,8.20
2023-04-27T03:51:18.909Z,10.27
2023-04-27T03:53:47.502Z,9.38
2023-04-27T03:56:14.969Z,9.57
2023-04-27T03:58:42.179Z,15.63
2023-04-27T04:01:16.432Z,13.70
2023-04-27T04:03:44.800Z,7.32
2023-04-27T04:06:12.567Z,9.18
2023-04-27T04:08:40.136Z,12.02
2023-04-27T04:11:07.221Z,9.43
2023-04-27T04:13:36.613Z,11.05
2023-04-27T04:16:05.714Z,10.90
2023-04-27T04:18:33.783Z,8.75
2023-04-27T04:21:01.500Z,8.77
2023-04-27T04:23:28.834Z,13.65
2023-04-27T04:25:59.112Z,18.13
2023-04-27T04:28:31.269Z,15.75
2023-04-27T04:30:59.490Z,17.25
2023-04-27T04:33:27.087Z,17.58
2023-04-27T04:35:55.554Z,15.20
2023-04-27T04:38:23.766Z,19.92
2023-04-27T04:40:52.565Z,16.80
2023-04-27T04:43:19.601Z,11.23
2023-04-27T04:45:47.676Z,16.08
2023-04-27T04:48:16.135Z,12.68
2023-04-27T04:50:43.729Z,11.82
2023-04-27T04:53:12.677Z,15.35
2023-04-27T04:55:40.778Z,14.45
2023-04-27T04:58:09.539Z,11.38
2023-04-27T05:00:37.150Z,10.45
2023-04-27T05:03:06.868Z,13.30
2023-04-27T05:05:34.659Z,9.45
2023-04-27T05:08:02.410Z,12.30
2023-04-27T05:10:29.711Z,18.25
2023-04-27T05:12:56.811Z,26.10
2023-04-27T05:15:23.987Z,31.02
2023-04-27T05:17:51.196Z,11.90
2023-04-27T05:20:18.933Z,12.85
2023-04-27T05:22:46.111Z,13.30
2023-04-27T05:25:13.393Z,14.85
2023-04-27T05:27:41.187Z,9.70
2023-04-27T05:30:09.350Z,10.45
2023-04-27T05:32:37.494Z,11.38
2023-04-27T05:35:05.171Z,15.77
2023-04-27T05:37:32.544Z,10.00
2023-04-27T05:39:59.709Z,12.98
2023-04-27T05:42:27.076Z,11.98
2023-04-27T05:44:55.006Z,13.80
2023-04-27T05:47:22.995Z,15.35
2023-04-27T05:49:52.392Z,18.45
2023-04-27T05:52:20.052Z,14.82
2023-04-27T05:54:48.003Z,11.93
2023-04-27T05:57:15.668Z,11.60
2023-04-27T05:59:43.242Z,12.27
2023-04-27T06:02:10.732Z,12.13
2023-04-27T06:04:38.304Z,9.43
2023-04-27T06:07:12.781Z,14.45
2023-04-27T06:09:40.400Z,19.77
2023-04-27T06:12:08.318Z,11.32
2023-04-27T06:14:36.125Z,12.00
2023-04-27T06:17:04.056Z,11.13
2023-04-27T06:19:31.508Z,11.50
2023-04-27T06:21:58.751Z,17.05
2023-04-27T06:24:26.092Z,15.45
2023-04-27T06:26:54.311Z,13.43
2023-04-27T06:29:21.929Z,8.05
2023-04-27T06:31:49.209Z,12.73
2023-04-27T06:34:16.732Z,12.20
2023-04-27T06:36:43.996Z,8.13
2023-04-27T06:39:12.131Z,18.75
2023-04-27T06:41:39.296Z,15.82
2023-04-27T06:44:17.178Z,17.35
2023-04-27T06:46:44.312Z,9.25
2023-04-27T06:49:11.659Z,21.45
2023-04-27T06:51:39.271Z,14.32
2023-04-27T06:54:07.546Z,9.32
2023-04-27T06:56:34.419Z,14.18
2023-04-27T06:59:01.878Z,10.30
2023-04-27T07:01:28.902Z,6.00
2023-04-27T07:03:57.366Z,12.50
2023-04-27T07:06:25.809Z,9.30
2023-04-27T07:08:52.792Z,7.55
2023-04-27T07:11:20.143Z,8.40
2023-04-27T07:13:47.509Z,15.25
2023-04-27T07:16:16.032Z,10.63
2023-04-27T07:18:43.706Z,8.25
2023-04-27T07:21:11.140Z,9.18
2023-04-27T07:23:40.934Z,8.60
2023-04-27T07:26:08.213Z,7.63
2023-04-27T07:28:35.614Z,12.60
2023-04-27T07:31:06.581Z,8.20
2023-04-27T07:33:34.233Z,5.10
2023-04-27T07:36:02.765Z,16.90
2023-04-27T07:38:30.928Z,11.52
2023-04-27T07:41:07.819Z,12.75
2023-04-27T07:43:35.503Z,8.88
2023-04-27T07:46:03.774Z,9.77
2023-04-27T07:48:30.901Z,9.90
2023-04-27T07:50:58.553Z,9.27
2023-04-27T07:53:26.539Z,6.82
2023-04-27T07:55:53.797Z,12.93
2023-04-27T07:58:20.974Z,11.82
2023-04-27T08:00:48.704Z,7.72
2023-04-27T08:03:16.717Z,13.05
2023-04-27T08:05:44.731Z,9.73
2023-04-27T08:08:12.589Z,8.85
2023-04-27T08:10:39.861Z,5.82
2023-04-27T08:13:10.068Z,6.85
2023-04-27T08:15:37.313Z,7.45
2023-04-27T08:18:04.611Z,10.52
2023-04-27T08:20:32.332Z,8.57
2023-04-27T08:22:59.431Z,8.23
2023-04-27T08:25:26.650Z,5.05
2023-04-27T08:27:53.770Z,8.52
2023-04-27T08:30:21.154Z,8.43
2023-04-27T08:32:48.667Z,10.52
2023-04-27T08:35:16.288Z,9.43
2023-04-27T08:37:44.285Z,11.82
2023-04-27T08:40:12.067Z,7.50
2023-04-27T08:42:40.813Z,5.47
2023-04-27T08:45:08.780Z,5.07
2023-04-27T08:47:42.633Z,7.18
2023-04-27T08:50:12.422Z,9.07
2023-04-27T08:52:40.149Z,10.48
2023-04-27T08:55:08.205Z,8.98
2023-04-27T08:57:35.577Z,19.00
2023-04-27T09:00:12.266Z,8.07
2023-04-27T09:02:46.673Z,6.78
2023-04-27T09:05:18.614Z,11.60
2023-04-27T09:07:59.632Z,18.05
2023-04-27T09:10:28.965Z,12.52
2023-04-27T09:12:59.731Z,13.73
2023-04-27T09:15:28.728Z,8.15
2023-04-27T09:17:56.510Z,14.48
2023-04-27T09:20:24.026Z,13.40
2023-04-27T09:22:57.019Z,16.70
2023-04-27T09:25:24.157Z,13.20
2023-04-27T09:27:51.356Z,10.18
2023-04-27T09:30:18.743Z,10.10
2023-04-27T09:32:59.085Z,11.60
2023-04-27T09:35:31.475Z,11.85
2023-04-27T09:37:58.727Z,14.57
2023-04-27T09:40:27.959Z,22.25
2023-04-27T09:43:01.320Z,27.67
2023-04-27T09:45:28.644Z,44.65
2023-04-27T09:47:56.128Z,30.13
2023-04-27T09:50:23.679Z,27.50
2023-04-27T09:52:50.878Z,6.85
2023-04-27T09:55:29.972Z,15.93
2023-04-27T09:58:20.141Z,15.82
2023-04-27T10:00:56.310Z,10.13
2023-04-27T10:04:03.856Z,11.48
2023-04-27T10:06:59.579Z,15.48
2023-04-27T10:09:27.666Z,12.88
2023-04-27T10:11:54.960Z,13.70
2023-04-27T10:14:23.205Z,9.68
2023-04-27T10:17:00.143Z,11.30
2023-04-27T10:19:27.660Z,9.45
2023-04-27T10:22:07.799Z,12.55
2023-04-27T10:24:42.748Z,8.80
2023-04-27T10:27:10.976Z,11.02
2023-04-27T10:29:42.498Z,13.02
2023-04-27T10:32:12.559Z,14.98
2023-04-27T10:34:40.387Z,11.40
2023-04-27T10:37:09.379Z,11.05
2023-04-27T10:39:47.725Z,7.78
2023-04-27T10:42:29.343Z,13.98
2023-04-27T10:44:57.391Z,17.95
2023-04-27T10:47:25.123Z,11.27
2023-04-27T10:49:54.154Z,13.10
2023-04-27T10:52:21.233Z,10.75
2023-04-27T10:54:48.868Z,21.98
2023-04-27T10:57:16.200Z,18.65
2023-04-27T10:59:52.523Z,33.55
2023-04-27T11:02:27.641Z,38.65
2023-04-27T11:04:56.313Z,53.35
2023-04-27T11:07:27.284Z,52.15
2023-04-27T11:09:54.661Z,40.35
2023-04-27T11:12:22.072Z,21.73
2023-04-27T11:14:49.375Z,19.45
2023-04-27T11:17:17.053Z,17.10
2023-04-27T11:19:47.006Z,14.30
2023-04-27T11:22:16.645Z,18.27
2023-04-27T11:24:50.390Z,14.88
2023-04-27T11:27:18.088Z,17.13
2023-04-27T11:29:45.344Z,20.95
2023-04-27T11:32:24.523Z,18.30
2023-04-27T11:34:53.693Z,30.60
2023-04-27T11:37:26.708Z,16.40
2023-04-27T11:39:54.428Z,15.57
2023-04-27T11:42:25.576Z,16.55
2023-04-27T11:44:54.362Z,16.08
2023-04-27T11:47:22.565Z,18.70
2023-04-27T11:49:50.062Z,24.10
2023-04-27T11:52:17.429Z,23.55
2023-04-27T11:54:53.175Z,18.90
2023-04-27T11:57:27.140Z,19.52
2023-04-27T11:59:54.854Z,29.58
2023-04-27T12:02:22.161Z,16.85
2023-04-27T12:04:53.259Z,22.90
2023-04-27T12:07:20.767Z,24.90
2023-04-27T12:09:48.338Z,18.27
2023-04-27T12:12:18.951Z,17.48
2023-04-27T12:14:46.280Z,13.80
2023-04-27T12:17:13.774Z,34.95
2023-04-27T12:19:41.005Z,19.02
2023-04-27T12:22:08.573Z,17.95
2023-04-27T12:24:36.706Z,22.65
2023-04-27T12:27:04.166Z,21.23
2023-04-27T12:29:34.201Z,17.00
2023-04-27T12:32:02.063Z,16.13
2023-04-27T12:34:29.215Z,23.98
2023-04-27T12:36:56.878Z,32.17
2023-04-27T12:39:26.841Z,30.35
2023-04-27T12:41:54.064Z,15.30
2023-04-27T12:44:21.929Z,13.65
2023-04-27T12:46:49.526Z,11.70
2023-04-27T12:49:16.971Z,17.27
2023-04-27T12:51:45.245Z,14.27
2023-04-27T12:54:12.721Z,10.48
2023-04-27T12:56:40.408Z,9.73
2023-04-27T12:59:07.769Z,18.17
2023-04-27T13:01:35.184Z,13.15
2023-04-27T13:04:03.500Z,16.70
2023-04-27T13:06:32.222Z,13.13
2023-04-27T13:08:59.841Z,16.63
2023-04-27T13:11:27.597Z,28.67
2023-04-27T13:13:55.325Z,31.38
2023-04-27T13:16:24.806Z,41.75
2023-04-27T13:18:53.422Z,27.70
2023-04-27T13:21:20.996Z,28.80
2023-04-27T13:23:49.425Z,18.38
2023-04-27T13:26:17.054Z,16.88
2023-04-27T13:28:44.142Z,22.33
2023-04-27T13:31:11.667Z,20.40
2023-04-27T13:33:41.861Z,16.90
2023-04-27T13:36:10.174Z,22.08
2023-04-27T13:38:37.536Z,21.67
2023-04-27T13:41:05.334Z,18.85
2023-04-27T13:43:32.686Z,16.15
2023-04-27T13:46:02.121Z,20.17
2023-04-27T13:48:30.379Z,17.40
2023-04-27T13:50:57.810Z,19.40
2023-04-27T13:53:25.491Z,28.13
2023-04-27T13:55:56.147Z,23.63
2023-04-27T13:58:25.759Z,17.75
2023-04-27T14:00:53.703Z,15.13
2023-04-27T14:03:21.260Z,14.85
2023-04-27T14:05:50.780Z,14.07
2023-04-27T14:08:18.339Z,16.90
2023-04-27T14:10:45.834Z,11.60
2023-04-27T14:13:14.289Z,15.43
2023-04-27T14:15:41.707Z,14.40
2023-04-27T14:18:09.680Z,15.80
2023-04-27T14:20:37.852Z,17.73
2023-04-27T14:23:05.911Z,14.88
2023-04-27T14:25:34.110Z,14.27
2023-04-27T14:28:02.515Z,14.85
2023-04-27T14:30:30.590Z,13.82
2023-04-27T14:32:58.290Z,14.82
2023-04-27T14:35:25.557Z,14.73
2023-04-27T14:37:53.152Z,14.32
2023-04-27T14:40:20.622Z,15.23
2023-04-27T14:42:48.154Z,16.20
2023-04-27T14:45:17.018Z,17.42
2023-04-27T14:47:44.844Z,13.98
2023-04-27T14:50:11.917Z,15.90
2023-04-27T14:52:39.581Z,19.60
2023-04-27T14:55:07.997Z,18.52
2023-04-27T14:57:36.167Z,26.33
2023-04-27T15:00:09.895Z,20.85
2023-04-27T15:02:37.887Z,18.05
2023-04-27T15:05:06.057Z,16.88
2023-04-27T15:07:33.306Z,18.77
2023-04-27T15:10:00.694Z,22.73
2023-04-27T15:12:28.162Z,18.08
2023-04-27T15:14:55.851Z,20.85
2023-04-27T15:17:23.873Z,22.27
2023-04-27T15:19:51.825Z,20.58
2023-04-27T15:22:19.580Z,20.52
2023-04-27T15:24:46.858Z,17.60
2023-04-27T15:27:14.613Z,19.45
2023-04-27T15:29:42.417Z,16.65
2023-04-27T15:32:09.685Z,18.77
2023-04-27T15:34:37.276Z,18.40
2023-04-27T15:37:04.790Z,18.30
2023-04-27T15:39:32.137Z,19.83
2023-04-27T15:41:59.808Z,18.40
2023-04-27T15:44:26.948Z,16.13
2023-04-27T15:46:54.832Z,15.07
2023-04-27T15:49:21.862Z,13.30
2023-04-27T15:51:49.833Z,13.25
2023-04-27T15:54:17.828Z,12.52
2023-04-27T15:56:45.136Z,15.48
2023-04-27T15:59:12.803Z,19.00
2023-04-27T16:01:40.330Z,21.40
2023-04-27T16:04:08.036Z,18.85
2023-04-27T16:06:37.268Z,17.08
2023-04-27T16:09:05.340Z,23.48
2023-04-27T16:11:33.795Z,20.88
2023-04-27T16:14:01.430Z,18.33
2023-04-27T16:16:28.652Z,16.10
2023-04-27T16:18:58.107Z,17.75
2023-04-27T16:21:25.213Z,19.90
2023-04-27T16:23:52.867Z,20.38
2023-04-27T16:26:20.567Z,19.42
2023-04-27T16:28:48.184Z,13.18
2023-04-27T16:31:15.984Z,13.38
2023-04-27T16:33:42.902Z,11.50
2023-04-27T16:36:11.285Z,11.15
2023-04-27T16:38:39.356Z,12.85
2023-04-27T16:41:06.984Z,23.75
2023-04-27T16:43:34.458Z,11.85
2023-04-27T16:46:01.638Z,17.60
2023-04-27T16:48:29.663Z,17.42
2023-04-27T16:50:57.409Z,18.58
2023-04-27T16:53:25.138Z,14.68
2023-04-27T16:55:53.395Z,16.33
2023-04-27T16:58:20.787Z,15.38
2023-04-27T17:00:47.817Z,13.70
2023-04-27T17:03:15.224Z,14.50
2023-04-27T17:05:42.559Z,12.23
2023-04-27T17:08:10.789Z,12.10
2023-04-27T17:10:38.157Z,12.55
2023-04-27T17:13:05.565Z,9.35
2023-04-27T17:15:33.085Z,10.15
2023-04-27T17:18:03.335Z,9.75
2023-04-27T17:20:30.732Z,10.90
2023-04-27T17:22:58.156Z,12.93
2023-04-27T17:25:25.572Z,12.88
2023-04-27T17:27:52.706Z,12.57
2023-04-27T17:30:20.336Z,13.57
2023-04-27T17:32:47.331Z,13.60
2023-04-27T17:35:14.479Z,14.45
2023-04-27T17:37:41.757Z,14.38
2023-04-27T17:40:09.627Z,17.00
2023-04-27T17:42:36.637Z,16.08
2023-04-27T17:45:04.426Z,17.52
2023-04-27T17:47:33.808Z,17.15
2023-04-27T17:50:01.116Z,16.98
2023-04-27T17:52:28.477Z,20.70
2023-04-27T17:54:55.773Z,28.27
2023-04-27T17:57:22.887Z,21.95
2023-04-27T17:59:50.953Z,18.77
2023-04-27T18:02:18.908Z,17.58
2023-04-27T18:04:46.226Z,17.48
2023-04-27T18:07:13.937Z,13.73
2023-04-27T18:09:41.434Z,12.20
2023-04-27T18:12:11.134Z,10.13
2023-04-27T18:14:38.728Z,8.65
2023-04-27T18:17:06.297Z,10.27
2023-04-27T18:19:33.649Z,7.82
2023-04-27T18:22:01.000Z,6.30
2023-04-27T18:24:28.368Z,7.90
2023-04-27T18:26:55.648Z,7.55
2023-04-27T18:29:22.946Z,7.88
2023-04-27T18:31:50.291Z,8.05
2023-04-27T18:34:17.893Z,6.43
2023-04-27T18:36:51.625Z,7.47
2023-04-27T18:39:20.217Z,10.00
2023-04-27T18:41:47.912Z,9.07
2023-04-27T18:44:16.282Z,7.35
2023-04-27T18:46:44.299Z,6.70
2023-04-27T18:49:12.581Z,6.28
2023-04-27T18:51:40.052Z,6.43
2023-04-27T18:54:07.374Z,9.73
2023-04-27T18:56:35.110Z,6.90
2023-04-27T18:59:02.150Z,8.85
2023-04-27T19:01:32.425Z,6.65
2023-04-27T19:03:59.767Z,8.25
2023-04-27T19:06:27.300Z,12.25
2023-04-27T19:08:54.306Z,18.50
2023-04-27T19:11:22.160Z,16.63
2023-04-27T19:13:49.958Z,12.25
2023-04-27T19:16:17.164Z,9.90
2023-04-27T19:18:44.573Z,10.60
2023-04-27T19:21:12.952Z,10.70
2023-04-27T19:23:40.683Z,9.60
2023-04-27T19:26:13.198Z,7.38
2023-04-27T19:28:40.977Z,8.73
2023-04-27T19:31:08.667Z,7.30
2023-04-27T19:33:36.192Z,7.88
2023-04-27T19:36:03.472Z,6.60
2023-04-27T19:38:30.604Z,7.22
2023-04-27T19:40:57.989Z,6.65
2023-04-27T19:43:25.089Z,5.32
2023-04-27T19:45:52.519Z,7.93
2023-04-27T19:48:19.782Z,6.32
2023-04-27T19:50:47.010Z,7.43
2023-04-27T19:53:14.692Z,6.60
2023-04-27T19:55:42.033Z,5.57
2023-04-27T19:58:09.440Z,6.47
2023-04-27T20:00:36.485Z,5.50
2023-04-27T20:03:06.304Z,6.68
2023-04-27T20:05:34.936Z,7.25
2023-04-27T20:08:02.161Z,5.32
2023-04-27T20:10:29.282Z,8.63
2023-04-27T20:12:57.363Z,7.18
2023-04-27T20:15:25.761Z,7.90
2023-04-27T20:17:53.488Z,9.77
2023-04-27T20:20:20.701Z,7.55
2023-04-27T20:22:48.381Z,6.78
2023-04-27T20:25:15.823Z,9.55
2023-04-27T20:27:43.182Z,11.55
2023-04-27T20:30:11.162Z,9.90
2023-04-27T20:32:41.211Z,8.75
2023-04-27T20:35:11.729Z,8.75
2023-04-27T20:37:39.537Z,8.80
2023-04-27T20:40:07.745Z,10.05
2023-04-27T20:42:35.752Z,9.88
2023-04-27T20:45:05.595Z,12.02
2023-04-27T20:47:32.940Z,10.02
2023-04-27T20:50:01.004Z,9.68
2023-04-27T20:52:31.012Z,11.23
2023-04-27T20:54:59.599Z,11.73
2023-04-27T20:57:26.883Z,13.23
2023-04-27T20:59:54.166Z,9.68
2023-04-27T21:02:21.258Z,7.20
2023-04-27T21:04:48.433Z,8.02
2023-04-27T21:07:15.776Z,7.82
2023-04-27T21:09:42.860Z,8.35
2023-04-27T21:12:10.241Z,8.15
2023-04-27T21:14:37.644Z,6.82
2023-04-27T21:17:05.179Z,7.22
2023-04-27T21:19:32.434Z,7.45
2023-04-27T21:21:59.817Z,10.15
2023-04-27T21:24:27.124Z,7.32
2023-04-27T21:26:54.333Z,6.95
2023-04-27T21:29:21.489Z,7.38
2023-04-27T21:31:48.598Z,8.15
2023-04-27T21:34:16.068Z,5.68
2023-04-27T21:36:43.374Z,6.75
2023-04-27T21:39:12.022Z,6.32
2023-04-27T21:41:40.680Z,6.40
2023-04-27T21:44:09.836Z,6.35
2023-04-27T21:46:37.209Z,6.05
2023-04-27T21:49:04.600Z,12.43
2023-04-27T21:51:34.522Z,15.95
2023-04-27T21:54:01.669Z,11.77
2023-04-27T21:56:28.853Z,11.30
2023-04-27T21:58:55.778Z,10.38
2023-04-27T22:01:23.578Z,11.32
2023-04-27T22:03:51.160Z,10.45
2023-04-27T22:06:18.236Z,7.30
2023-04-27T22:08:46.180Z,8.18
2023-04-27T22:11:13.485Z,7.15
2023-04-27T22:13:40.731Z,8.32
2023-04-27T22:16:08.418Z,6.63
2023-04-27T22:18:35.751Z,5.78
2023-04-27T22:21:03.052Z,8.13
2023-04-27T22:23:30.941Z,8.23
2023-04-27T22:25:58.428Z,10.43
2023-04-27T22:28:25.664Z,7.32
2023-04-27T22:30:53.371Z,10.10
2023-04-27T22:33:20.752Z,6.57
2023-04-27T22:35:48.041Z,6.72
2023-04-27T22:38:15.279Z,10.95
2023-04-27T22:40:42.862Z,8.55
2023-04-27T22:43:10.024Z,6.85
2023-04-27T22:45:38.837Z,6.80
2023-04-27T22:48:06.804Z,7.90
2023-04-27T22:50:34.364Z,12.70
2023-04-27T22:53:01.657Z,12.10
2023-04-27T22:55:29.209Z,12.77
2023-04-27T22:57:56.542Z,11.60
2023-04-27T23:00:23.759Z,10.55
2023-04-27T23:02:50.869Z,13.63
2023-04-27T23:05:17.925Z,10.60
2023-04-27T23:07:46.055Z,10.52
2023-04-27T23:10:14.828Z,10.40
2023-04-27T23:12:41.968Z,8.63
2023-04-27T23:15:09.942Z,7.75
2023-04-27T23:17:37.067Z,7.18
2023-04-27T23:20:20.384Z,4.57
2023-04-27T23:22:55.254Z,5.43
2023-04-27T23:25:22.896Z,6.25
2023-04-27T23:27:51.906Z,7.68
2023-04-27T23:30:21.136Z,7.55
2023-04-27T23:32:48.102Z,5.38
2023-04-27T23:35:15.554Z,5.68
2023-04-27T23:37:43.063Z,8.13
2023-04-27T23:40:10.323Z,8.10
2023-04-27T23:42:37.890Z,6.50
2023-04-27T23:45:05.540Z,9.15
2023-04-27T23:47:33.988Z,8.88
2023-04-27T23:50:02.604Z,17.40
2023-04-27T23:52:29.896Z,13.93
2023-04-27T23:55:00.315Z,13.55
2023-04-27T23:57:27.484Z,14.13
2023-04-27T23:59:54.552Z,13.43
